sensor_id;sensor_type;location;lat;lon;timestamp;P1;durP1;ratioP1;P2;durP2;ratioP2
78489;SDS011;67776;52.012;4.736;2023-03-01T00:01:28;23.90;;;11.97;;
78489;SDS011;67776;52.012;4.736;2023-03-01T00:03:55;24.23;;;11.70;;
78489;SDS011;67776;52.012;4.736;2023-03-01T00:06:21;22.42;;;11.50;;
78489;SDS011;67776;52.012;4.736;2023-03-01T00:08:46;24.40;;;12.40;;
78489;SDS011;67776;52.012;4.736;2023-03-01T00:13:37;24.17;;;12.30;;
78489;SDS011;67776;52.012;4.736;2023-03-01T00:16:03;28.00;;;13.57;;
78489;SDS011;67776;52.012;4.736;2023-03-01T00:18:33;29.05;;;14.00;;
78489;SDS011;67776;52.012;4.736;2023-03-01T00:20:59;26.05;;;12.32;;
78489;SDS011;67776;52.012;4.736;2023-03-01T00:23:25;26.90;;;12.97;;
78489;SDS011;67776;52.012;4.736;2023-03-01T00:25:51;25.80;;;13.02;;
78489;SDS011;67776;52.012;4.736;2023-03-01T00:28:16;28.60;;;13.07;;
78489;SDS011;67776;52.012;4.736;2023-03-01T00:30:42;27.20;;;13.00;;
78489;SDS011;67776;52.012;4.736;2023-03-01T00:33:08;28.13;;;13.90;;
78489;SDS011;67776;52.012;4.736;2023-03-01T00:35:33;26.60;;;13.50;;
78489;SDS011;67776;52.012;4.736;2023-03-01T00:37:59;28.20;;;12.70;;
78489;SDS011;67776;52.012;4.736;2023-03-01T00:40:25;26.17;;;13.63;;
78489;SDS011;67776;52.012;4.736;2023-03-01T00:42:51;30.37;;;13.50;;
78489;SDS011;67776;52.012;4.736;2023-03-01T00:45:16;29.80;;;14.47;;
78489;SDS011;67776;52.012;4.736;2023-03-01T00:47:42;29.10;;;14.50;;
78489;SDS011;67776;52.012;4.736;2023-03-01T00:50:07;29.17;;;14.53;;
78489;SDS011;67776;52.012;4.736;2023-03-01T00:52:33;29.38;;;14.52;;
78489;SDS011;67776;52.012;4.736;2023-03-01T00:54:58;30.17;;;15.17;;
78489;SDS011;67776;52.012;4.736;2023-03-01T00:57:24;31.63;;;15.33;;
78489;SDS011;67776;52.012;4.736;2023-03-01T00:59:49;31.50;;;14.53;;
78489;SDS011;67776;52.012;4.736;2023-03-01T01:02:14;32.17;;;14.97;;
78489;SDS011;67776;52.012;4.736;2023-03-01T01:04:40;31.80;;;14.45;;
78489;SDS011;67776;52.012;4.736;2023-03-01T01:07:05;32.50;;;14.83;;
78489;SDS011;67776;52.012;4.736;2023-03-01T01:09:31;31.97;;;15.57;;
78489;SDS011;67776;52.012;4.736;2023-03-01T01:11:56;32.87;;;15.00;;
78489;SDS011;67776;52.012;4.736;2023-03-01T01:14:21;33.33;;;15.00;;
78489;SDS011;67776;52.012;4.736;2023-03-01T01:16:47;34.40;;;16.00;;
78489;SDS011;67776;52.012;4.736;2023-03-01T01:19:12;33.00;;;15.87;;
78489;SDS011;67776;52.012;4.736;2023-03-01T01:21:38;30.08;;;14.85;;
78489;SDS011;67776;52.012;4.736;2023-03-01T01:24:04;32.50;;;15.70;;
78489;SDS011;67776;52.012;4.736;2023-03-01T01:26:31;37.10;;;16.07;;
78489;SDS011;67776;52.012;4.736;2023-03-01T01:28:58;35.60;;;16.23;;
78489;SDS011;67776;52.012;4.736;2023-03-01T01:31:25;36.35;;;16.38;;
78489;SDS011;67776;52.012;4.736;2023-03-01T01:33:51;34.25;;;16.65;;
78489;SDS011;67776;52.012;4.736;2023-03-01T01:36:17;35.43;;;16.03;;
78489;SDS011;67776;52.012;4.736;2023-03-01T01:38:43;34.90;;;16.08;;
78489;SDS011;67776;52.012;4.736;2023-03-01T01:41:09;36.77;;;17.40;;
78489;SDS011;67776;52.012;4.736;2023-03-01T01:43:43;34.05;;;16.98;;
78489;SDS011;67776;52.012;4.736;2023-03-01T01:49:23;37.42;;;17.40;;
78489;SDS011;67776;52.012;4.736;2023-03-01T01:51:29;34.77;;;16.43;;
78489;SDS011;67776;52.012;4.736;2023-03-01T01:54:03;37.88;;;17.05;;
78489;SDS011;67776;52.012;4.736;2023-03-01T01:57:00;35.25;;;17.35;;
78489;SDS011;67776;52.012;4.736;2023-03-01T01:59:28;38.53;;;16.98;;
78489;SDS011;67776;52.012;4.736;2023-03-01T02:01:56;36.55;;;17.10;;
78489;SDS011;67776;52.012;4.736;2023-03-01T02:04:25;37.57;;;17.67;;
78489;SDS011;67776;52.012;4.736;2023-03-01T02:09:45;35.07;;;16.50;;
78489;SDS011;67776;52.012;4.736;2023-03-01T02:12:13;38.17;;;18.25;;
78489;SDS011;67776;52.012;4.736;2023-03-01T02:14:40;37.30;;;18.02;;
78489;SDS011;67776;52.012;4.736;2023-03-01T02:17:05;40.53;;;18.03;;
78489;SDS011;67776;52.012;4.736;2023-03-01T02:19:38;40.65;;;17.45;;
78489;SDS011;67776;52.012;4.736;2023-03-01T02:27:33;38.90;;;17.60;;
78489;SDS011;67776;52.012;4.736;2023-03-01T02:30:06;37.05;;;16.90;;
78489;SDS011;67776;52.012;4.736;2023-03-01T02:32:32;31.83;;;16.05;;
78489;SDS011;67776;52.012;4.736;2023-03-01T02:34:59;33.23;;;16.50;;
78489;SDS011;67776;52.012;4.736;2023-03-01T02:37:24;36.75;;;17.63;;
78489;SDS011;67776;52.012;4.736;2023-03-01T02:39:58;37.22;;;17.42;;
78489;SDS011;67776;52.012;4.736;2023-03-01T02:42:33;36.13;;;16.88;;
78489;SDS011;67776;52.012;4.736;2023-03-01T02:45:02;33.07;;;16.03;;
78489;SDS011;67776;52.012;4.736;2023-03-01T02:47:28;35.55;;;17.15;;
78489;SDS011;67776;52.012;4.736;2023-03-01T02:49:53;36.53;;;16.30;;
78489;SDS011;67776;52.012;4.736;2023-03-01T02:55:26;33.77;;;16.50;;
78489;SDS011;67776;52.012;4.736;2023-03-01T02:57:52;32.67;;;15.90;;
78489;SDS011;67776;52.012;4.736;2023-03-01T03:00:19;34.33;;;16.67;;
78489;SDS011;67776;52.012;4.736;2023-03-01T03:02:48;32.87;;;15.60;;
78489;SDS011;67776;52.012;4.736;2023-03-01T03:05:17;40.60;;;17.35;;
78489;SDS011;67776;52.012;4.736;2023-03-01T03:07:45;31.30;;;15.82;;
78489;SDS011;67776;52.012;4.736;2023-03-01T03:10:15;37.88;;;16.83;;
78489;SDS011;67776;52.012;4.736;2023-03-01T03:12:52;35.22;;;15.57;;
78489;SDS011;67776;52.012;4.736;2023-03-01T03:15:26;33.77;;;16.30;;
78489;SDS011;67776;52.012;4.736;2023-03-01T03:17:52;35.88;;;17.30;;
78489;SDS011;67776;52.012;4.736;2023-03-01T03:20:20;38.22;;;17.92;;
78489;SDS011;67776;52.012;4.736;2023-03-01T03:22:47;35.15;;;16.90;;
78489;SDS011;67776;52.012;4.736;2023-03-01T03:25:14;38.53;;;17.83;;
78489;SDS011;67776;52.012;4.736;2023-03-01T03:27:41;35.40;;;16.37;;
78489;SDS011;67776;52.012;4.736;2023-03-01T03:30:09;34.42;;;16.25;;
78489;SDS011;67776;52.012;4.736;2023-03-01T03:32:41;36.58;;;16.80;;
78489;SDS011;67776;52.012;4.736;2023-03-01T03:35:17;36.15;;;16.98;;
78489;SDS011;67776;52.012;4.736;2023-03-01T03:37:43;33.67;;;16.50;;
78489;SDS011;67776;52.012;4.736;2023-03-01T03:43:12;37.22;;;17.67;;
78489;SDS011;67776;52.012;4.736;2023-03-01T03:45:39;37.38;;;17.65;;
78489;SDS011;67776;52.012;4.736;2023-03-01T03:48:06;38.45;;;18.08;;
78489;SDS011;67776;52.012;4.736;2023-03-01T03:50:34;37.13;;;17.03;;
78489;SDS011;67776;52.012;4.736;2023-03-01T03:53:00;37.53;;;17.20;;
78489;SDS011;67776;52.012;4.736;2023-03-01T03:55:26;39.35;;;18.42;;
78489;SDS011;67776;52.012;4.736;2023-03-01T03:57:56;39.92;;;17.98;;
78489;SDS011;67776;52.012;4.736;2023-03-01T04:00:25;38.87;;;18.43;;
78489;SDS011;67776;52.012;4.736;2023-03-01T04:02:51;38.92;;;17.85;;
78489;SDS011;67776;52.012;4.736;2023-03-01T04:05:17;37.77;;;17.33;;
78489;SDS011;67776;52.012;4.736;2023-03-01T04:07:44;40.55;;;19.02;;
78489;SDS011;67776;52.012;4.736;2023-03-01T04:10:11;39.00;;;17.20;;
78489;SDS011;67776;52.012;4.736;2023-03-01T04:12:38;37.35;;;17.58;;
78489;SDS011;67776;52.012;4.736;2023-03-01T04:15:04;36.93;;;16.90;;
78489;SDS011;67776;52.012;4.736;2023-03-01T04:17:41;37.80;;;18.13;;
78489;SDS011;67776;52.012;4.736;2023-03-01T04:20:08;38.22;;;17.60;;
78489;SDS011;67776;52.012;4.736;2023-03-01T04:22:36;40.50;;;18.35;;
78489;SDS011;67776;52.012;4.736;2023-03-01T04:25:02;39.30;;;19.03;;
78489;SDS011;67776;52.012;4.736;2023-03-01T04:27:27;40.72;;;19.02;;
78489;SDS011;67776;52.012;4.736;2023-03-01T04:29:52;41.80;;;17.97;;
78489;SDS011;67776;52.012;4.736;2023-03-01T04:32:18;39.63;;;17.87;;
78489;SDS011;67776;52.012;4.736;2023-03-01T04:34:43;37.00;;;17.07;;
78489;SDS011;67776;52.012;4.736;2023-03-01T04:37:08;36.73;;;17.00;;
78489;SDS011;67776;52.012;4.736;2023-03-01T04:39:34;38.20;;;17.30;;
78489;SDS011;67776;52.012;4.736;2023-03-01T04:42:14;36.83;;;17.35;;
78489;SDS011;67776;52.012;4.736;2023-03-01T04:44:39;37.47;;;17.75;;
78489;SDS011;67776;52.012;4.736;2023-03-01T04:47:05;36.90;;;17.50;;
78489;SDS011;67776;52.012;4.736;2023-03-01T04:49:31;36.97;;;17.65;;
78489;SDS011;67776;52.012;4.736;2023-03-01T04:51:56;39.90;;;17.77;;
78489;SDS011;67776;52.012;4.736;2023-03-01T04:54:26;34.15;;;17.23;;
78489;SDS011;67776;52.012;4.736;2023-03-01T04:56:52;37.73;;;17.37;;
78489;SDS011;67776;52.012;4.736;2023-03-01T04:59:18;37.50;;;17.67;;
78489;SDS011;67776;52.012;4.736;2023-03-01T05:01:47;40.35;;;18.42;;
78489;SDS011;67776;52.012;4.736;2023-03-01T05:04:16;38.38;;;16.83;;
78489;SDS011;67776;52.012;4.736;2023-03-01T05:06:41;37.80;;;18.27;;
78489;SDS011;67776;52.012;4.736;2023-03-01T05:09:06;37.43;;;17.60;;
78489;SDS011;67776;52.012;4.736;2023-03-01T05:11:32;43.07;;;18.30;;
78489;SDS011;67776;52.012;4.736;2023-03-01T05:14:00;39.28;;;18.55;;
78489;SDS011;67776;52.012;4.736;2023-03-01T05:16:27;40.97;;;18.63;;
78489;SDS011;67776;52.012;4.736;2023-03-01T05:18:52;38.67;;;17.87;;
78489;SDS011;67776;52.012;4.736;2023-03-01T05:21:20;42.17;;;18.73;;
78489;SDS011;67776;52.012;4.736;2023-03-01T05:23:46;37.90;;;18.38;;
78489;SDS011;67776;52.012;4.736;2023-03-01T05:26:11;37.97;;;16.93;;
78489;SDS011;67776;52.012;4.736;2023-03-01T05:28:37;35.80;;;17.25;;
78489;SDS011;67776;52.012;4.736;2023-03-01T05:31:03;41.20;;;17.83;;
78489;SDS011;67776;52.012;4.736;2023-03-01T05:33:34;41.83;;;18.65;;
78489;SDS011;67776;52.012;4.736;2023-03-01T05:36:00;38.97;;;18.02;;
78489;SDS011;67776;52.012;4.736;2023-03-01T05:38:26;36.93;;;17.77;;
78489;SDS011;67776;52.012;4.736;2023-03-01T05:40:51;37.67;;;16.33;;
78489;SDS011;67776;52.012;4.736;2023-03-01T05:43:16;38.43;;;17.63;;
78489;SDS011;67776;52.012;4.736;2023-03-01T05:45:43;38.40;;;17.98;;
78489;SDS011;67776;52.012;4.736;2023-03-01T05:48:09;36.90;;;18.03;;
78489;SDS011;67776;52.012;4.736;2023-03-01T05:50:37;36.27;;;17.27;;
78489;SDS011;67776;52.012;4.736;2023-03-01T05:53:05;35.15;;;17.35;;
78489;SDS011;67776;52.012;4.736;2023-03-01T05:55:41;40.97;;;17.70;;
78489;SDS011;67776;52.012;4.736;2023-03-01T05:58:14;38.08;;;17.33;;
78489;SDS011;67776;52.012;4.736;2023-03-01T06:00:44;33.30;;;16.73;;
78489;SDS011;67776;52.012;4.736;2023-03-01T06:03:12;33.40;;;16.50;;
78489;SDS011;67776;52.012;4.736;2023-03-01T06:05:39;34.50;;;16.23;;
78489;SDS011;67776;52.012;4.736;2023-03-01T06:08:05;33.80;;;16.02;;
78489;SDS011;67776;52.012;4.736;2023-03-01T06:10:30;36.57;;;16.67;;
78489;SDS011;67776;52.012;4.736;2023-03-01T06:12:56;35.45;;;16.17;;
78489;SDS011;67776;52.012;4.736;2023-03-01T06:15:22;33.83;;;16.97;;
78489;SDS011;67776;52.012;4.736;2023-03-01T06:17:47;33.78;;;16.58;;
78489;SDS011;67776;52.012;4.736;2023-03-01T06:20:14;35.20;;;16.37;;
78489;SDS011;67776;52.012;4.736;2023-03-01T06:22:41;32.80;;;16.27;;
78489;SDS011;67776;52.012;4.736;2023-03-01T06:25:07;33.03;;;15.95;;
78489;SDS011;67776;52.012;4.736;2023-03-01T06:27:34;35.80;;;16.17;;
78489;SDS011;67776;52.012;4.736;2023-03-01T06:30:00;36.50;;;17.27;;
78489;SDS011;67776;52.012;4.736;2023-03-01T06:32:25;36.87;;;16.73;;
78489;SDS011;67776;52.012;4.736;2023-03-01T06:34:50;37.70;;;17.00;;
78489;SDS011;67776;52.012;4.736;2023-03-01T06:37:16;34.17;;;15.87;;
78489;SDS011;67776;52.012;4.736;2023-03-01T06:39:41;33.97;;;16.52;;
78489;SDS011;67776;52.012;4.736;2023-03-01T06:42:07;35.90;;;16.87;;
78489;SDS011;67776;52.012;4.736;2023-03-01T06:44:33;34.23;;;15.90;;
78489;SDS011;67776;52.012;4.736;2023-03-01T06:46:58;37.88;;;16.85;;
78489;SDS011;67776;52.012;4.736;2023-03-01T06:49:24;36.97;;;16.93;;
78489;SDS011;67776;52.012;4.736;2023-03-01T06:51:49;38.77;;;17.23;;
78489;SDS011;67776;52.012;4.736;2023-03-01T06:54:14;38.17;;;17.63;;
78489;SDS011;67776;52.012;4.736;2023-03-01T06:56:40;33.55;;;16.70;;
78489;SDS011;67776;52.012;4.736;2023-03-01T06:59:05;37.67;;;17.53;;
78489;SDS011;67776;52.012;4.736;2023-03-01T07:01:30;40.80;;;18.10;;
78489;SDS011;67776;52.012;4.736;2023-03-01T07:03:56;37.60;;;17.70;;
78489;SDS011;67776;52.012;4.736;2023-03-01T07:06:22;35.50;;;16.35;;
78489;SDS011;67776;52.012;4.736;2023-03-01T07:08:48;32.63;;;15.88;;
78489;SDS011;67776;52.012;4.736;2023-03-01T07:11:13;33.03;;;15.43;;
78489;SDS011;67776;52.012;4.736;2023-03-01T07:13:39;32.30;;;15.90;;
78489;SDS011;67776;52.012;4.736;2023-03-01T07:16:04;31.50;;;15.07;;
78489;SDS011;67776;52.012;4.736;2023-03-01T07:18:30;29.33;;;14.53;;
78489;SDS011;67776;52.012;4.736;2023-03-01T07:20:55;32.70;;;15.32;;
78489;SDS011;67776;52.012;4.736;2023-03-01T07:23:21;29.50;;;15.03;;
78489;SDS011;67776;52.012;4.736;2023-03-01T07:25:53;30.90;;;14.63;;
78489;SDS011;67776;52.012;4.736;2023-03-01T07:28:19;30.50;;;14.65;;
78489;SDS011;67776;52.012;4.736;2023-03-01T07:30:45;29.73;;;14.33;;
78489;SDS011;67776;52.012;4.736;2023-03-01T07:33:10;30.50;;;13.87;;
78489;SDS011;67776;52.012;4.736;2023-03-01T07:35:35;31.17;;;14.38;;
78489;SDS011;67776;52.012;4.736;2023-03-01T07:38:01;27.73;;;14.43;;
78489;SDS011;67776;52.012;4.736;2023-03-01T07:40:26;27.27;;;14.33;;
78489;SDS011;67776;52.012;4.736;2023-03-01T07:42:55;26.63;;;14.00;;
78489;SDS011;67776;52.012;4.736;2023-03-01T07:45:21;27.83;;;14.02;;
78489;SDS011;67776;52.012;4.736;2023-03-01T07:47:47;30.17;;;14.00;;
78489;SDS011;67776;52.012;4.736;2023-03-01T07:50:12;28.03;;;13.20;;
78489;SDS011;67776;52.012;4.736;2023-03-01T07:52:38;25.10;;;12.80;;
78489;SDS011;67776;52.012;4.736;2023-03-01T07:55:04;24.58;;;12.77;;
78489;SDS011;67776;52.012;4.736;2023-03-01T07:57:29;23.23;;;12.53;;
78489;SDS011;67776;52.012;4.736;2023-03-01T07:59:55;24.87;;;12.87;;
78489;SDS011;67776;52.012;4.736;2023-03-01T08:02:20;23.53;;;11.67;;
78489;SDS011;67776;52.012;4.736;2023-03-01T08:04:45;22.10;;;11.43;;
78489;SDS011;67776;52.012;4.736;2023-03-01T08:07:11;23.13;;;11.17;;
78489;SDS011;67776;52.012;4.736;2023-03-01T08:09:39;22.17;;;11.50;;
78489;SDS011;67776;52.012;4.736;2023-03-01T08:12:05;22.33;;;11.65;;
78489;SDS011;67776;52.012;4.736;2023-03-01T08:14:31;21.90;;;11.00;;
78489;SDS011;67776;52.012;4.736;2023-03-01T08:16:57;25.60;;;11.40;;
78489;SDS011;67776;52.012;4.736;2023-03-01T08:19:22;20.83;;;9.90;;
78489;SDS011;67776;52.012;4.736;2023-03-01T08:21:48;19.85;;;10.10;;
78489;SDS011;67776;52.012;4.736;2023-03-01T08:24:13;20.07;;;10.17;;
78489;SDS011;67776;52.012;4.736;2023-03-01T08:26:38;20.20;;;10.73;;
78489;SDS011;67776;52.012;4.736;2023-03-01T08:29:04;23.07;;;9.70;;
78489;SDS011;67776;52.012;4.736;2023-03-01T08:31:33;20.10;;;10.20;;
78489;SDS011;67776;52.012;4.736;2023-03-01T08:34:02;17.80;;;9.20;;
78489;SDS011;67776;52.012;4.736;2023-03-01T08:36:31;19.77;;;9.48;;
78489;SDS011;67776;52.012;4.736;2023-03-01T08:39:02;19.45;;;9.70;;
78489;SDS011;67776;52.012;4.736;2023-03-01T08:41:27;19.55;;;9.45;;
78489;SDS011;67776;52.012;4.736;2023-03-01T08:43:53;19.13;;;10.07;;
78489;SDS011;67776;52.012;4.736;2023-03-01T08:46:23;19.92;;;10.30;;
78489;SDS011;67776;52.012;4.736;2023-03-01T08:48:52;21.23;;;10.57;;
78489;SDS011;67776;52.012;4.736;2023-03-01T08:51:18;20.45;;;9.65;;
78489;SDS011;67776;52.012;4.736;2023-03-01T08:53:45;20.17;;;9.37;;
78489;SDS011;67776;52.012;4.736;2023-03-01T08:56:10;18.73;;;9.20;;
78489;SDS011;67776;52.012;4.736;2023-03-01T08:58:36;16.60;;;8.83;;
78489;SDS011;67776;52.012;4.736;2023-03-01T09:01:11;17.73;;;8.73;;
78489;SDS011;67776;52.012;4.736;2023-03-01T09:03:38;19.13;;;8.77;;
78489;SDS011;67776;52.012;4.736;2023-03-01T09:06:04;19.30;;;9.17;;
78489;SDS011;67776;52.012;4.736;2023-03-01T09:08:34;17.23;;;9.02;;
78489;SDS011;67776;52.012;4.736;2023-03-01T09:11:06;21.02;;;9.75;;
78489;SDS011;67776;52.012;4.736;2023-03-01T09:13:33;21.63;;;9.98;;
78489;SDS011;67776;52.012;4.736;2023-03-01T09:15:59;24.70;;;10.90;;
78489;SDS011;67776;52.012;4.736;2023-03-01T09:18:26;22.27;;;10.50;;
78489;SDS011;67776;52.012;4.736;2023-03-01T09:20:51;23.90;;;10.47;;
78489;SDS011;67776;52.012;4.736;2023-03-01T09:23:16;22.13;;;11.07;;
78489;SDS011;67776;52.012;4.736;2023-03-01T09:25:42;20.45;;;9.85;;
78489;SDS011;67776;52.012;4.736;2023-03-01T09:28:07;18.53;;;9.27;;
78489;SDS011;67776;52.012;4.736;2023-03-01T09:30:32;18.17;;;8.53;;
78489;SDS011;67776;52.012;4.736;2023-03-01T09:32:58;16.00;;;8.47;;
78489;SDS011;67776;52.012;4.736;2023-03-01T09:35:23;15.70;;;8.10;;
78489;SDS011;67776;52.012;4.736;2023-03-01T09:37:49;15.65;;;7.50;;
78489;SDS011;67776;52.012;4.736;2023-03-01T09:40:16;14.87;;;7.80;;
78489;SDS011;67776;52.012;4.736;2023-03-01T09:42:52;17.13;;;8.25;;
78489;SDS011;67776;52.012;4.736;2023-03-01T09:45:25;15.20;;;7.75;;
78489;SDS011;67776;52.012;4.736;2023-03-01T09:47:53;14.95;;;7.53;;
78489;SDS011;67776;52.012;4.736;2023-03-01T09:50:20;13.60;;;7.38;;
78489;SDS011;67776;52.012;4.736;2023-03-01T09:55:37;14.23;;;6.97;;
78489;SDS011;67776;52.012;4.736;2023-03-01T10:01:02;11.43;;;6.13;;
78489;SDS011;67776;52.012;4.736;2023-03-01T10:03:39;11.95;;;5.72;;
78489;SDS011;67776;52.012;4.736;2023-03-01T10:08:43;10.80;;;6.03;;
78489;SDS011;67776;52.012;4.736;2023-03-01T10:11:26;12.85;;;6.68;;
78489;SDS011;67776;52.012;4.736;2023-03-01T10:13:58;11.05;;;6.35;;
78489;SDS011;67776;52.012;4.736;2023-03-01T10:18:58;13.50;;;6.63;;
78489;SDS011;67776;52.012;4.736;2023-03-01T10:21:27;13.45;;;7.03;;
78489;SDS011;67776;52.012;4.736;2023-03-01T10:23:53;13.32;;;7.65;;
78489;SDS011;67776;52.012;4.736;2023-03-01T10:26:44;15.60;;;7.25;;
78489;SDS011;67776;52.012;4.736;2023-03-01T10:29:10;12.10;;;7.57;;
78489;SDS011;67776;52.012;4.736;2023-03-01T10:31:38;12.30;;;6.87;;
78489;SDS011;67776;52.012;4.736;2023-03-01T10:34:09;11.77;;;7.03;;
78489;SDS011;67776;52.012;4.736;2023-03-01T10:36:36;11.90;;;7.28;;
78489;SDS011;67776;52.012;4.736;2023-03-01T10:39:10;12.52;;;7.15;;
78489;SDS011;67776;52.012;4.736;2023-03-01T10:47:22;12.85;;;7.13;;
78489;SDS011;67776;52.012;4.736;2023-03-01T10:49:59;12.85;;;6.95;;
78489;SDS011;67776;52.012;4.736;2023-03-01T10:52:31;12.35;;;6.25;;
78489;SDS011;67776;52.012;4.736;2023-03-01T10:55:43;10.57;;;6.13;;
78489;SDS011;67776;52.012;4.736;2023-03-01T10:58:05;10.93;;;5.50;;
78489;SDS011;67776;52.012;4.736;2023-03-01T11:03:19;9.30;;;4.95;;
78489;SDS011;67776;52.012;4.736;2023-03-01T11:05:58;9.63;;;5.35;;
78489;SDS011;67776;52.012;4.736;2023-03-01T11:08:34;10.52;;;5.80;;
78489;SDS011;67776;52.012;4.736;2023-03-01T11:13:34;11.02;;;5.65;;
78489;SDS011;67776;52.012;4.736;2023-03-01T11:16:07;10.38;;;5.70;;
78489;SDS011;67776;52.012;4.736;2023-03-01T11:18:35;10.88;;;5.95;;
78489;SDS011;67776;52.012;4.736;2023-03-01T11:21:00;9.07;;;5.27;;
78489;SDS011;67776;52.012;4.736;2023-03-01T11:23:30;10.32;;;5.50;;
78489;SDS011;67776;52.012;4.736;2023-03-01T11:25:56;12.07;;;5.23;;
78489;SDS011;67776;52.012;4.736;2023-03-01T11:28:27;10.05;;;5.68;;
78489;SDS011;67776;52.012;4.736;2023-03-01T11:31:05;9.82;;;5.85;;
78489;SDS011;67776;52.012;4.736;2023-03-01T11:42:19;9.70;;;5.57;;
78489;SDS011;67776;52.012;4.736;2023-03-01T11:44:50;9.63;;;5.47;;
78489;SDS011;67776;52.012;4.736;2023-03-01T11:47:31;10.90;;;5.75;;
78489;SDS011;67776;52.012;4.736;2023-03-01T11:55:24;9.68;;;5.63;;
78489;SDS011;67776;52.012;4.736;2023-03-01T12:12:11;9.65;;;5.55;;
78489;SDS011;67776;52.012;4.736;2023-03-01T12:28:52;9.52;;;5.45;;
78489;SDS011;67776;52.012;4.736;2023-03-01T12:45:50;9.52;;;5.55;;
78489;SDS011;67776;52.012;4.736;2023-03-01T12:51:09;9.00;;;5.22;;
78489;SDS011;67776;52.012;4.736;2023-03-01T12:53:40;9.10;;;5.40;;
78489;SDS011;67776;52.012;4.736;2023-03-01T12:56:07;9.07;;;5.70;;
78489;SDS011;67776;52.012;4.736;2023-03-01T13:03:58;10.30;;;5.90;;
78489;SDS011;67776;52.012;4.736;2023-03-01T13:07:02;9.87;;;5.93;;
78489;SDS011;67776;52.012;4.736;2023-03-01T13:09:49;7.85;;;5.25;;
78489;SDS011;67776;52.012;4.736;2023-03-01T13:17:51;8.88;;;5.32;;
78489;SDS011;67776;52.012;4.736;2023-03-01T13:20:21;8.07;;;5.13;;
78489;SDS011;67776;52.012;4.736;2023-03-01T13:23:10;9.45;;;5.97;;
78489;SDS011;67776;52.012;4.736;2023-03-01T13:34:00;8.10;;;5.13;;
78489;SDS011;67776;52.012;4.736;2023-03-01T13:46:48;7.90;;;4.70;;
78489;SDS011;67776;52.012;4.736;2023-03-01T13:49:18;11.35;;;5.40;;
78489;SDS011;67776;52.012;4.736;2023-03-01T13:51:47;8.18;;;5.50;;
78489;SDS011;67776;52.012;4.736;2023-03-01T13:54:14;8.63;;;5.18;;
78489;SDS011;67776;52.012;4.736;2023-03-01T13:56:43;8.93;;;5.75;;
78489;SDS011;67776;52.012;4.736;2023-03-01T14:01:39;9.07;;;5.50;;
78489;SDS011;67776;52.012;4.736;2023-03-01T14:06:49;9.65;;;5.35;;
78489;SDS011;67776;52.012;4.736;2023-03-01T14:09:24;8.97;;;5.47;;
78489;SDS011;67776;52.012;4.736;2023-03-01T14:12:02;10.68;;;4.95;;
78489;SDS011;67776;52.012;4.736;2023-03-01T14:19:57;7.53;;;4.33;;
78489;SDS011;67776;52.012;4.736;2023-03-01T14:22:28;7.43;;;4.07;;
78489;SDS011;67776;52.012;4.736;2023-03-01T14:24:56;8.02;;;4.45;;
78489;SDS011;67776;52.012;4.736;2023-03-01T14:27:26;7.75;;;4.50;;
78489;SDS011;67776;52.012;4.736;2023-03-01T14:29:56;9.30;;;4.70;;
78489;SDS011;67776;52.012;4.736;2023-03-01T14:32:30;10.17;;;4.80;;
78489;SDS011;67776;52.012;4.736;2023-03-01T14:34:57;8.52;;;4.50;;
78489;SDS011;67776;52.012;4.736;2023-03-01T14:39:52;8.50;;;4.63;;
78489;SDS011;67776;52.012;4.736;2023-03-01T14:42:18;8.07;;;4.35;;
78489;SDS011;67776;52.012;4.736;2023-03-01T14:44:46;10.93;;;4.90;;
78489;SDS011;67776;52.012;4.736;2023-03-01T14:47:14;10.13;;;4.47;;
78489;SDS011;67776;52.012;4.736;2023-03-01T14:49:56;8.85;;;4.70;;
78489;SDS011;67776;52.012;4.736;2023-03-01T14:52:25;9.07;;;4.53;;
78489;SDS011;67776;52.012;4.736;2023-03-01T14:54:56;8.82;;;4.60;;
78489;SDS011;67776;52.012;4.736;2023-03-01T14:57:23;8.00;;;4.20;;
78489;SDS011;67776;52.012;4.736;2023-03-01T14:59:50;9.50;;;4.22;;
78489;SDS011;67776;52.012;4.736;2023-03-01T15:02:19;8.52;;;4.18;;
78489;SDS011;67776;52.012;4.736;2023-03-01T15:04:48;9.30;;;4.50;;
78489;SDS011;67776;52.012;4.736;2023-03-01T15:07:15;9.60;;;4.50;;
78489;SDS011;67776;52.012;4.736;2023-03-01T15:09:41;8.88;;;4.43;;
78489;SDS011;67776;52.012;4.736;2023-03-01T15:12:33;8.20;;;4.30;;
78489;SDS011;67776;52.012;4.736;2023-03-01T15:15:00;8.57;;;4.40;;
78489;SDS011;67776;52.012;4.736;2023-03-01T15:17:43;9.35;;;4.60;;
78489;SDS011;67776;52.012;4.736;2023-03-01T15:20:16;8.23;;;4.20;;
78489;SDS011;67776;52.012;4.736;2023-03-01T15:22:45;9.32;;;4.25;;
78489;SDS011;67776;52.012;4.736;2023-03-01T15:25:15;7.82;;;4.18;;
78489;SDS011;67776;52.012;4.736;2023-03-01T15:27:45;8.67;;;3.93;;
78489;SDS011;67776;52.012;4.736;2023-03-01T15:30:18;9.18;;;4.75;;
78489;SDS011;67776;52.012;4.736;2023-03-01T15:32:47;9.10;;;4.50;;
78489;SDS011;67776;52.012;4.736;2023-03-01T15:40:53;9.63;;;4.28;;
78489;SDS011;67776;52.012;4.736;2023-03-01T15:46:32;8.40;;;4.22;;
78489;SDS011;67776;52.012;4.736;2023-03-01T15:49:42;9.03;;;4.27;;
78489;SDS011;67776;52.012;4.736;2023-03-01T15:52:03;7.88;;;4.13;;
78489;SDS011;67776;52.012;4.736;2023-03-01T15:54:30;10.45;;;4.38;;
78489;SDS011;67776;52.012;4.736;2023-03-01T15:56:56;10.43;;;4.93;;
78489;SDS011;67776;52.012;4.736;2023-03-01T15:59:21;8.15;;;4.20;;
78489;SDS011;67776;52.012;4.736;2023-03-01T16:01:47;9.87;;;4.27;;
78489;SDS011;67776;52.012;4.736;2023-03-01T16:04:14;10.93;;;4.53;;
78489;SDS011;67776;52.012;4.736;2023-03-01T16:06:51;10.65;;;4.43;;
78489;SDS011;67776;52.012;4.736;2023-03-01T16:09:24;9.10;;;4.35;;
78489;SDS011;67776;52.012;4.736;2023-03-01T16:11:50;9.65;;;4.53;;
78489;SDS011;67776;52.012;4.736;2023-03-01T16:14:16;8.77;;;4.37;;
78489;SDS011;67776;52.012;4.736;2023-03-01T16:16:42;9.32;;;4.40;;
78489;SDS011;67776;52.012;4.736;2023-03-01T16:19:08;8.27;;;4.50;;
78489;SDS011;67776;52.012;4.736;2023-03-01T16:21:34;9.15;;;4.32;;
78489;SDS011;67776;52.012;4.736;2023-03-01T16:24:00;8.33;;;4.20;;
78489;SDS011;67776;52.012;4.736;2023-03-01T16:26:25;10.27;;;4.80;;
78489;SDS011;67776;52.012;4.736;2023-03-01T16:28:53;9.10;;;4.37;;
78489;SDS011;67776;52.012;4.736;2023-03-01T16:31:20;9.25;;;4.47;;
78489;SDS011;67776;52.012;4.736;2023-03-01T16:33:45;8.10;;;4.30;;
78489;SDS011;67776;52.012;4.736;2023-03-01T16:36:18;10.27;;;4.57;;
78489;SDS011;67776;52.012;4.736;2023-03-01T16:38:44;10.05;;;4.53;;
78489;SDS011;67776;52.012;4.736;2023-03-01T16:41:13;12.03;;;4.43;;
78489;SDS011;67776;52.012;4.736;2023-03-01T16:43:40;11.45;;;4.43;;
78489;SDS011;67776;52.012;4.736;2023-03-01T16:46:10;11.20;;;4.87;;
78489;SDS011;67776;52.012;4.736;2023-03-01T16:48:39;10.30;;;4.30;;
78489;SDS011;67776;52.012;4.736;2023-03-01T16:51:04;9.65;;;4.55;;
78489;SDS011;67776;52.012;4.736;2023-03-01T16:53:32;9.80;;;4.70;;
78489;SDS011;67776;52.012;4.736;2023-03-01T16:55:58;9.65;;;4.75;;
78489;SDS011;67776;52.012;4.736;2023-03-01T16:58:24;8.80;;;4.47;;
78489;SDS011;67776;52.012;4.736;2023-03-01T17:00:53;10.90;;;4.83;;
78489;SDS011;67776;52.012;4.736;2023-03-01T17:03:22;9.25;;;4.47;;
78489;SDS011;67776;52.012;4.736;2023-03-01T17:05:49;10.07;;;4.90;;
78489;SDS011;67776;52.012;4.736;2023-03-01T17:08:15;12.02;;;5.07;;
78489;SDS011;67776;52.012;4.736;2023-03-01T17:10:41;8.83;;;4.73;;